Time;durP1;ratioP1;P1;durP2;ratioP2;P2;SDS_P1;SDS_P2;PMS_P1;PMS_P2;Temp;Humidity;BMP_temperature;BMP_pressure;BME280_temperature;BME280_humidity;BME280_pressure;Samples;Min_cycle;Max_cycle;Signal;HPM_P1;HPM_P2
2022/11/06 00:00:17;;;;;;;15.98;12.20;;;;;;;;;;5116440;28;20019;-83
2022/11/06 00:02:43;;;;;;;14.23;11.13;;;;;;;;;;5116577;28;20486;-83
2022/11/06 00:07:54;;;;;;;;;;;;;;;;;;5116920;28;20046;-83
2022/11/06 00:10:20;;;;;;;16.40;13.27;;;;;;;;;;5116239;28;19903;-83
2022/11/06 00:12:47;;;;;;;20.63;14.50;;;;;;;;;;5116223;28;20028;-84
2022/11/06 00:15:13;;;;;;;19.63;13.82;;;;;;;;;;5115975;28;20394;-84
2022/11/06 00:17:40;;;;;;;16.88;12.45;;;;;;;;;;5116099;28;20034;-84
2022/11/06 00:20:07;;;;;;;16.85;12.70;;;;;;;;;;5115825;28;20020;-83
2022/11/06 00:22:33;;;;;;;13.65;11.98;;;;;;;;;;5116036;28;20019;-86
2022/11/06 00:25:00;;;;;;;18.48;12.60;;;;;;;;;;5115940;28;20122;-84
2022/11/06 00:27:26;;;;;;;17.58;12.50;;;;;;;;;;5097526;28;20028;-87
2022/11/06 00:29:52;;;;;;;15.13;10.98;;;;;;;;;;5116096;28;20085;-86
2022/11/06 00:32:18;;;;;;;18.90;16.05;;;;;;;;;;5097557;28;20031;-88
2022/11/06 00:34:44;;;;;;;23.95;21.10;;;;;;;;;;5115942;28;20815;-87
2022/11/06 00:37:10;;;;;;;22.40;17.25;;;;;;;;;;5097406;28;20102;-86
2022/11/06 00:39:36;;;;;;;18.13;14.18;;;;;;;;;;5097549;28;20544;-86
2022/11/06 00:42:02;;;;;;;16.10;12.20;;;;;;;;;;5097595;28;20023;-84
2022/11/06 00:44:28;;;;;;;18.73;12.88;;;;;;;;;;5115551;28;20027;-85
2022/11/06 00:46:55;;;;;;;16.13;13.23;;;;;;;;;;5115528;28;20034;-85
2022/11/06 00:49:21;;;;;;;23.70;12.35;;;;;;;;;;5115298;28;20156;-87
2022/11/06 00:51:47;;;;;;;16.35;11.57;;;;;;;;;;5097307;28;20114;-85
2022/11/06 00:54:13;;;;;;;14.70;12.43;;;;;;;;;;5096750;28;20138;-86
2022/11/06 00:56:40;;;;;;;16.02;13.90;;;;;;;;;;5115362;28;20016;-83
2022/11/06 00:59:07;;;;;;;18.02;13.30;;;;;;;;;;5115219;28;20042;-87
2022/11/06 01:01:34;;;;;;;18.67;14.63;;;;;;;;;;5115202;28;20035;-84
2022/11/06 01:04:02;;;;;;;20.65;15.35;;;;;;;;;;5095901;28;20077;-85
2022/11/06 01:06:30;;;;;;;17.88;14.80;;;;;;;;;;5096872;28;20030;-83
2022/11/06 01:08:56;;;;;;;21.42;14.05;;;;;;;;;;5115190;28;20019;-84
2022/11/06 01:11:32;;;;;;;20.48;15.35;;;;;;;;;;5114807;28;20016;-84
2022/11/06 01:14:00;;;;;;;17.88;14.18;;;;;;;;;;5114849;28;20046;-83
2022/11/06 01:16:26;;;;;;;18.60;15.27;;;;;;;;;;5114854;28;20042;-85
2022/11/06 01:18:55;;;;;;;19.73;15.32;;;;;;;;;;5115047;28;20020;-85
2022/11/06 01:21:22;;;;;;;19.67;16.77;;;;;;;;;;5114708;28;20043;-83
2022/11/06 01:23:52;;;;;;;24.15;16.70;;;;;;;;;;5096605;28;20398;-84
2022/11/06 01:26:19;;;;;;;21.65;15.50;;;;;;;;;;5114544;28;20073;-84
2022/11/06 01:28:45;;;;;;;23.48;15.20;;;;;;;;;;5114771;28;20054;-85
2022/11/06 01:31:12;;;;;;;22.17;15.80;;;;;;;;;;5096286;28;20027;-85
2022/11/06 01:33:38;;;;;;;23.05;18.50;;;;;;;;;;5114540;28;20035;-86
2022/11/06 01:36:05;;;;;;;19.77;14.48;;;;;;;;;;5114553;28;20078;-84
2022/11/06 01:38:31;;;;;;;21.90;16.33;;;;;;;;;;5096359;28;20035;-84
2022/11/06 01:40:57;;;;;;;25.67;15.02;;;;;;;;;;5114575;28;20027;-84
2022/11/06 01:43:25;;;;;;;24.08;15.20;;;;;;;;;;5096357;28;20533;-84
2022/11/06 01:45:55;;;;;;;19.65;15.30;;;;;;;;;;5106406;28;20019;-84
2022/11/06 01:48:23;;;;;;;21.00;14.48;;;;;;;;;;5114523;28;20020;-85
2022/11/06 01:50:52;;;;;;;22.20;14.57;;;;;;;;;;5115001;28;20024;-85
2022/11/06 01:53:20;;;;;;;19.55;13.07;;;;;;;;;;5090155;28;20090;-84
2022/11/06 01:55:48;;;;;;;17.83;12.48;;;;;;;;;;5076179;28;20086;-85
2022/11/06 02:01:06;;;;;;;17.58;12.55;;;;;;;;;;5093673;28;20107;-85
2022/11/06 02:03:33;;;;;;;16.00;11.18;;;;;;;;;;5094192;28;20125;-86
2022/11/06 02:05:59;;;;;;;19.63;13.48;;;;;;;;;;5093985;28;20020;-84
2022/11/06 02:08:25;;;;;;;17.73;12.50;;;;;;;;;;5075765;28;20032;-84
2022/11/06 02:10:52;;;;;;;19.23;11.80;;;;;;;;;;5075349;28;20020;-84
2022/11/06 02:13:27;;;;;;;12.82;10.88;;;;;;;;;;5093433;28;20036;-84
2022/11/06 02:16:12;;;;;;;16.65;11.60;;;;;;;;;;5075339;28;20024;-86
2022/11/06 02:18:44;;;;;;;13.20;9.75;;;;;;;;;;5075394;28;20420;-84
2022/11/06 02:21:31;;;;;;;14.40;10.90;;;;;;;;;;5075407;28;20387;-84
2022/11/06 02:24:03;;;;;;;16.85;11.20;;;;;;;;;;5075281;28;20024;-85
2022/11/06 02:26:32;;;;;;;15.07;9.82;;;;;;;;;;5074979;28;20438;-84
2022/11/06 02:29:09;;;;;;;15.68;12.15;;;;;;;;;;5075093;28;20443;-84
2022/11/06 02:31:38;;;;;;;15.13;11.52;;;;;;;;;;5075091;28;20110;-84
2022/11/06 02:34:06;;;;;;;17.58;12.45;;;;;;;;;;5092870;28;20032;-84
2022/11/06 02:36:33;;;;;;;17.58;12.43;;;;;;;;;;5075000;28;20044;-82
2022/11/06 02:39:01;;;;;;;15.25;11.68;;;;;;;;;;5092757;28;20024;-83
2022/11/06 02:41:32;;;;;;;17.80;12.40;;;;;;;;;;5093284;28;20027;-84
2022/11/06 02:43:59;;;;;;;19.17;11.63;;;;;;;;;;5074767;28;20070;-82
2022/11/06 02:46:36;;;;;;;16.23;11.63;;;;;;;;;;5093053;28;20027;-83
2022/11/06 02:49:15;;;;;;;18.70;13.68;;;;;;;;;;5092939;28;20411;-85
2022/11/06 02:51:44;;;;;;;14.25;11.90;;;;;;;;;;5074770;28;20027;-83
2022/11/06 02:54:11;;;;;;;24.15;15.50;;;;;;;;;;5105755;28;20048;-86
2022/11/06 02:56:39;;;;;;;18.20;14.02;;;;;;;;;;5113159;28;20102;-83
2022/11/06 02:59:09;;;;;;;25.25;18.15;;;;;;;;;;5113347;28;20026;-85
2022/11/06 03:01:42;;;;;;;22.95;16.70;;;;;;;;;;5113074;28;20020;-85
2022/11/06 03:04:12;;;;;;;22.77;16.52;;;;;;;;;;5113805;28;20024;-83
2022/11/06 03:06:41;;;;;;;21.63;16.38;;;;;;;;;;5113098;28;20020;-84
2022/11/06 03:09:09;;;;;;;23.50;16.42;;;;;;;;;;5094969;28;20413;-84
2022/11/06 03:11:39;;;;;;;28.38;20.10;;;;;;;;;;5113021;28;20051;-85
2022/11/06 03:14:23;;;;;;;26.58;17.77;;;;;;;;;;5113166;28;20020;-85
2022/11/06 03:16:52;;;;;;;20.88;16.23;;;;;;;;;;5113079;28;20051;-82
2022/11/06 03:19:18;;;;;;;25.95;18.15;;;;;;;;;;5094773;28;20118;-84
2022/11/06 03:21:44;;;;;;;23.50;17.00;;;;;;;;;;5113059;28;20034;-85
2022/11/06 03:24:14;;;;;;;24.92;16.52;;;;;;;;;;5112917;28;20098;-84
2022/11/06 03:26:43;;;;;;;21.73;15.63;;;;;;;;;;5115339;28;20477;-82
2022/11/06 03:29:16;;;;;;;29.05;17.38;;;;;;;;;;5116988;28;20024;-83
2022/11/06 03:31:50;;;;;;;27.42;17.77;;;;;;;;;;5117280;28;20023;-82
2022/11/06 03:34:19;;;;;;;23.83;16.73;;;;;;;;;;5117005;28;20490;-83
2022/11/06 03:36:49;;;;;;;25.42;17.55;;;;;;;;;;5117178;28;20020;-82
2022/11/06 03:39:19;;;;;;;23.70;17.20;;;;;;;;;;5117300;28;20055;-82
2022/11/06 03:41:51;;;;;;;20.60;16.40;;;;;;;;;;5116888;28;20024;-84
2022/11/06 03:44:19;;;;;;;22.23;17.02;;;;;;;;;;5116860;28;20469;-84
2022/11/06 03:46:48;;;;;;;22.90;17.40;;;;;;;;;;5098382;28;20078;-83
2022/11/06 03:49:17;;;;;;;23.73;16.65;;;;;;;;;;5116693;28;20035;-83
2022/11/06 03:51:56;;;;;;;26.98;19.48;;;;;;;;;;5116725;28;20032;-83
2022/11/06 03:54:27;;;;;;;21.95;16.60;;;;;;;;;;5116231;28;20054;-82
2022/11/06 03:57:13;;;;;;;22.88;16.40;;;;;;;;;;5116614;28;20069;-81
2022/11/06 03:59:42;;;;;;;19.63;16.73;;;;;;;;;;5116443;28;20505;-82
2022/11/06 04:02:08;;;;;;;18.88;14.38;;;;;;;;;;5116446;28;20463;-83
2022/11/06 04:04:38;;;;;;;23.00;16.63;;;;;;;;;;5116496;28;20092;-83
2022/11/06 04:07:09;;;;;;;21.25;15.55;;;;;;;;;;5116248;28;20024;-82
2022/11/06 04:15:10;;;;;;;22.02;16.20;;;;;;;;;;5116469;28;20076;-82
2022/11/06 04:17:36;;;;;;;19.77;14.02;;;;;;;;;;5097787;28;20020;-82
2022/11/06 04:20:04;;;;;;;20.65;16.73;;;;;;;;;;5116237;28;20023;-83
2022/11/06 04:22:30;;;;;;;18.90;14.05;;;;;;;;;;5115983;28;20024;-82
2022/11/06 04:28:18;;;;;;;20.08;14.30;;;;;;;;;;5116140;28;20072;-84
2022/11/06 04:30:48;;;;;;;17.48;14.18;;;;;;;;;;5115915;28;20026;-81
2022/11/06 04:33:19;;;;;;;19.27;15.70;;;;;;;;;;5097607;28;20035;-81
2022/11/06 04:36:04;;;;;;;25.58;17.73;;;;;;;;;;5115778;28;20466;-82
2022/11/06 04:38:29;;;;;;;;;;;;;;;;;;5116096;28;20557;-83
2022/11/06 04:41:14;;;;;;;24.42;17.30;;;;;;;;;;5115921;28;20018;-82
2022/11/06 04:43:40;;;;;;;;;;;;;;;;;;5116253;28;20027;-82
2022/11/06 04:46:08;;;;;;;21.95;17.42;;;;;;;;;;5115653;28;19911;-83
2022/11/06 04:48:35;;;;;;;23.48;18.35;;;;;;;;;;5115688;28;20077;-84
2022/11/06 04:51:04;;;;;;;23.92;18.10;;;;;;;;;;5097191;28;20035;-81
2022/11/06 04:53:31;;;;;;;20.33;16.05;;;;;;;;;;5096541;28;20047;-82
2022/11/06 04:56:05;;;;;;;35.47;27.63;;;;;;;;;;5095037;28;20090;-80
2022/11/06 04:58:52;;;;;;;20.67;16.48;;;;;;;;;;5094947;28;20058;-81
2022/11/06 05:01:38;;;;;;;21.83;16.97;;;;;;;;;;5099783;28;20127;-83
2022/11/06 05:04:05;;;;;;;23.35;17.67;;;;;;;;;;5094945;28;20024;-83
2022/11/06 05:06:31;;;;;;;23.05;16.15;;;;;;;;;;5110366;28;20059;-83
2022/11/06 05:09:06;;;;;;;22.48;16.20;;;;;;;;;;5094754;28;20031;-83
2022/11/06 05:11:32;;;;;;;19.70;15.15;;;;;;;;;;5076964;28;21268;-82
2022/11/06 05:14:01;;;;;;;23.63;17.98;;;;;;;;;;5076662;28;20035;-82
2022/11/06 05:16:27;;;;;;;20.17;17.15;;;;;;;;;;5087513;28;20024;-81
2022/11/06 05:18:53;;;;;;;23.00;17.60;;;;;;;;;;5115067;28;20031;-83
2022/11/06 05:24:04;;;;;;;20.92;16.60;;;;;;;;;;5108405;28;20046;-83
2022/11/06 05:26:30;;;;;;;24.40;16.63;;;;;;;;;;5114818;28;20048;-82
2022/11/06 05:28:57;;;;;;;19.30;15.20;;;;;;;;;;5096641;28;20045;-82
2022/11/06 05:31:23;;;;;;;18.45;14.82;;;;;;;;;;5084795;28;20031;-82
2022/11/06 05:33:49;;;;;;;21.00;16.83;;;;;;;;;;5100999;28;20039;-83
2022/11/06 05:36:15;;;;;;;18.50;15.75;;;;;;;;;;5097761;28;20028;-82
2022/11/06 05:38:41;;;;;;;20.25;14.93;;;;;;;;;;5094192;28;20372;-82
2022/11/06 05:41:11;;;;;;;19.17;14.82;;;;;;;;;;5110104;27;20028;-83
2022/11/06 05:43:37;;;;;;;19.13;14.98;;;;;;;;;;5105115;28;20047;-83
2022/11/06 05:46:03;;;;;;;19.88;14.23;;;;;;;;;;5108079;28;20035;-84
2022/11/06 05:48:47;;;;;;;16.05;12.98;;;;;;;;;;5093254;28;20081;-83
2022/11/06 05:51:13;;;;;;;16.60;13.38;;;;;;;;;;5109490;28;20047;-83
2022/11/06 05:53:43;;;;;;;17.23;13.80;;;;;;;;;;5109444;28;20115;-82
2022/11/06 05:56:11;;;;;;;18.13;13.68;;;;;;;;;;5109613;28;20055;-83
2022/11/06 05:58:37;;;;;;;17.48;15.02;;;;;;;;;;5093710;28;20063;-82
2022/11/06 06:01:04;;;;;;;18.77;15.07;;;;;;;;;;5109538;28;20425;-83
2022/11/06 06:03:30;;;;;;;21.05;14.77;;;;;;;;;;5109561;28;20047;-81
2022/11/06 06:05:56;;;;;;;18.70;14.52;;;;;;;;;;5093790;28;20085;-81
2022/11/06 06:08:22;;;;;;;20.38;15.90;;;;;;;;;;5093576;28;20032;-82
2022/11/06 06:10:49;;;;;;;21.23;18.25;;;;;;;;;;5094382;28;20035;-80
2022/11/06 06:13:15;;;;;;;20.77;17.10;;;;;;;;;;5109097;28;20403;-83
2022/11/06 06:15:42;;;;;;;18.58;13.95;;;;;;;;;;5093682;28;20035;-81
2022/11/06 06:18:09;;;;;;;17.98;15.68;;;;;;;;;;5109091;28;20023;-83
2022/11/06 06:20:35;;;;;;;21.75;18.70;;;;;;;;;;5093556;28;20016;-82
2022/11/06 06:23:01;;;;;;;23.77;19.08;;;;;;;;;;5096368;28;20492;-82
2022/11/06 06:25:28;;;;;;;25.23;18.52;;;;;;;;;;5095150;28;20039;-83
2022/11/06 06:27:55;;;;;;;21.55;19.08;;;;;;;;;;5102742;28;20074;-84
2022/11/06 06:30:22;;;;;;;35.10;29.08;;;;;;;;;;5092926;28;20429;-84
2022/11/06 06:32:48;;;;;;;27.67;21.25;;;;;;;;;;5089043;28;20402;-82
2022/11/06 06:35:14;;;;;;;28.98;23.88;;;;;;;;;;5101080;28;20107;-82
2022/11/06 06:37:40;;;;;;;24.05;19.70;;;;;;;;;;5100590;28;20051;-83
2022/11/06 06:40:06;;;;;;;42.75;32.47;;;;;;;;;;5097657;28;20029;-83
2022/11/06 06:42:33;;;;;;;28.67;23.63;;;;;;;;;;5103985;28;20020;-83
2022/11/06 06:44:59;;;;;;;28.30;21.70;;;;;;;;;;5106393;28;20044;-83
2022/11/06 06:47:25;;;;;;;20.80;18.55;;;;;;;;;;5105934;27;20024;-84
2022/11/06 06:49:51;;;;;;;26.15;20.05;;;;;;;;;;5099829;28;21035;-84
2022/11/06 06:52:17;;;;;;;23.80;18.05;;;;;;;;;;5115815;27;20043;-82
2022/11/06 06:54:43;;;;;;;27.38;20.33;;;;;;;;;;5112510;27;20481;-83
2022/11/06 06:57:09;;;;;;;25.17;19.52;;;;;;;;;;5109151;27;20118;-82
2022/11/06 06:59:36;;;;;;;24.48;20.40;;;;;;;;;;5103625;28;20044;-84
2022/11/06 07:02:02;;;;;;;31.88;22.67;;;;;;;;;;5126699;27;20023;-83
2022/11/06 07:04:28;;;;;;;32.22;22.48;;;;;;;;;;5131792;27;20031;-83
2022/11/06 07:06:54;;;;;;;28.33;21.33;;;;;;;;;;5143612;27;20039;-83
2022/11/06 07:09:22;;;;;;;22.30;19.23;;;;;;;;;;5122064;27;20475;-81
2022/11/06 07:11:48;;;;;;;22.75;18.80;;;;;;;;;;5122746;27;20027;-82
2022/11/06 07:14:15;;;;;;;26.70;19.67;;;;;;;;;;5125485;27;20102;-82
2022/11/06 07:30:00;;;;;;;30.52;25.00;;;;;;;;;;5027972;28;20032;-80
2022/11/06 07:38:40;;;;;;;25.85;21.63;;;;;;;;;;5010368;28;20036;-83
2022/11/06 07:44:54;;;;;;;25.48;21.50;;;;;;;;;;5055131;28;20040;-82
2022/11/06 07:47:49;;;;;;;31.63;26.08;;;;;;;;;;4990495;28;20050;-82
2022/11/06 07:57:13;;;;;;;26.73;23.35;;;;;;;;;;5004003;28;20169;-83
2022/11/06 08:00:14;;;;;;;;;;;;;;;;;;;;;
2022/11/06 08:03:28;;;;;;;22.48;18.08;;;;;;;;;;5069451;28;20033;-82
2022/11/06 08:06:36;;;;;;;26.20;22.33;;;;;;;;;;5069690;28;20033;-82
2022/11/06 08:12:48;;;;;;;28.05;22.75;;;;;;;;;;5011377;28;20041;-83
2022/11/06 08:19:05;;;;;;;27.65;21.08;;;;;;;;;;5045459;28;20123;-83
2022/11/06 08:22:15;;;;;;;;;;;;;;;;;;;;;
2022/11/06 08:24:58;;;;;;;;;;;;;;;;;;;;;
2022/11/06 08:47:15;;;;;;;32.83;25.38;;;;;;;;;;5013346;28;20042;-84
2022/11/06 08:49:55;;;;;;;28.05;24.15;;;;;;;;;;4996452;28;20393;-83
2022/11/06 08:52:26;;;;;;;30.55;27.17;;;;;;;;;;4991886;28;20050;-83
2022/11/06 08:55:01;;;;;;;35.38;28.50;;;;;;;;;;5008454;28;20038;-83
2022/11/06 08:57:28;;;;;;;32.88;26.20;;;;;;;;;;5012991;28;20409;-82
2022/11/06 08:59:56;;;;;;;27.75;24.73;;;;;;;;;;4996441;28;20403;-84
2022/11/06 09:02:22;;;;;;;38.25;32.42;;;;;;;;;;4994462;28;20030;-84
2022/11/06 09:04:48;;;;;;;35.20;28.52;;;;;;;;;;4979917;28;20046;-85
2022/11/06 09:07:15;;;;;;;32.13;25.67;;;;;;;;;;5010495;28;20037;-84
2022/11/06 09:09:41;;;;;;;34.47;24.38;;;;;;;;;;5035863;28;20119;-83
2022/11/06 09:12:10;;;;;;;28.60;22.50;;;;;;;;;;5036000;28;20480;-85
2022/11/06 09:14:38;;;;;;;19.95;15.43;;;;;;;;;;5045926;28;20178;-85
2022/11/06 09:17:05;;;;;;;20.88;16.73;;;;;;;;;;5082971;27;20039;-83
2022/11/06 09:19:31;;;;;;;19.98;15.00;;;;;;;;;;5104737;28;20027;-86
2022/11/06 09:21:57;;;;;;;22.15;17.60;;;;;;;;;;5096738;28;20532;-83
2022/11/06 09:24:58;;;;;;;18.85;16.17;;;;;;;;;;5111697;27;20026;-83
2022/11/06 09:30:56;;;;;;;29.67;22.23;;;;;;;;;;5079295;28;20028;-85
2022/11/06 09:33:38;;;;;;;31.65;23.80;;;;;;;;;;5083072;28;20505;-83
2022/11/06 09:36:08;;;;;;;33.13;26.95;;;;;;;;;;5095197;28;20044;-83
2022/11/06 09:39:18;;;;;;;32.80;25.08;;;;;;;;;;5095321;28;20494;-84
2022/11/06 09:41:57;;;;;;;36.10;28.33;;;;;;;;;;5071705;28;20092;-86
2022/11/06 09:44:45;;;;;;;20.38;16.25;;;;;;;;;;5054990;28;20024;-84
2022/11/06 09:47:32;;;;;;;22.60;16.80;;;;;;;;;;5102106;28;20421;-86
2022/11/06 09:53:28;;;;;;;24.80;19.27;;;;;;;;;;5070597;28;20384;-84
2022/11/06 10:00:02;;;;;;;;;;;;;;;;;;;;;
2022/11/06 10:02:35;;;;;;;27.58;22.52;;;;;;;;;;5000555;28;20389;-86
2022/11/06 10:08:23;;;;;;;26.83;21.13;;;;;;;;;;4993122;28;20034;-84
2022/11/06 10:11:12;;;;;;;32.20;23.73;;;;;;;;;;5095753;28;20028;-84
2022/11/06 10:17:01;;;;;;;31.88;24.55;;;;;;;;;;5114143;28;20387;-83
2022/11/06 10:35:38;;;;;;;31.80;24.30;;;;;;;;;;5120224;27;20042;-83
2022/11/06 10:38:07;;;;;;;35.78;26.70;;;;;;;;;;5105932;27;20050;-84
2022/11/06 10:50:16;;;;;;;;;;;;;;;;;;;;;
2022/11/06 10:59:09;;;;;;;32.75;25.33;;;;;;;;;;4914591;29;20051;-83
2022/11/06 11:02:09;;;;;;;;;;;;;;;;;;;;;
2022/11/06 11:11:19;;;;;;;26.48;22.45;;;;;;;;;;4972669;28;20085;-84
2022/11/06 11:17:07;;;;;;;24.90;21.92;;;;;;;;;;4980170;28;20115;-84
2022/11/06 11:19:37;;;;;;;29.58;21.67;;;;;;;;;;4953410;28;20582;-85
2022/11/06 11:22:15;;;;;;;21.58;18.85;;;;;;;;;;4974244;28;20065;-85
2022/11/06 11:25:02;;;;;;;26.83;21.58;;;;;;;;;;5087923;28;20047;-85
2022/11/06 11:27:48;;;;;;;26.70;21.90;;;;;;;;;;5100546;28;20020;-84
2022/11/06 11:33:32;;;;;;;24.05;18.58;;;;;;;;;;5043923;28;20052;-84
2022/11/06 11:35:59;;;;;;;24.75;19.73;;;;;;;;;;5057312;28;20044;-84
2022/11/06 11:38:25;;;;;;;22.65;18.17;;;;;;;;;;5084530;28;20046;-85
2022/11/06 11:41:35;;;;;;;22.73;20.17;;;;;;;;;;5097881;28;20031;-85
2022/11/06 11:44:24;;;;;;;27.02;20.58;;;;;;;;;;5015048;28;20076;-85
2022/11/06 11:46:51;;;;;;;25.23;19.60;;;;;;;;;;5074896;28;20024;-86
2022/11/06 11:49:39;;;;;;;17.98;16.08;;;;;;;;;;5097775;28;20043;-85
2022/11/06 11:52:16;;;;;;;18.35;14.30;;;;;;;;;;5102450;28;20024;-86
2022/11/06 11:54:46;;;;;;;24.05;18.95;;;;;;;;;;5086574;28;20024;-83
2022/11/06 11:57:37;;;;;;;21.45;16.77;;;;;;;;;;5077335;28;20570;-85
2022/11/06 12:00:05;;;;;;;22.42;16.75;;;;;;;;;;5063815;28;20045;-86
2022/11/06 12:03:00;;;;;;;19.35;14.35;;;;;;;;;;5075052;28;20115;-86
2022/11/06 12:12:06;;;;;;;16.45;13.93;;;;;;;;;;5054677;28;20068;-86
2022/11/06 12:27:44;;;;;;;13.35;10.77;;;;;;;;;;5000092;28;20133;-86
2022/11/06 12:30:32;;;;;;;11.82;10.00;;;;;;;;;;5009028;28;20500;-85
2022/11/06 12:33:12;;;;;;;13.90;11.93;;;;;;;;;;5007115;28;20042;-87
2022/11/06 12:35:41;;;;;;;17.13;13.10;;;;;;;;;;5007944;28;20046;-86
2022/11/06 12:38:24;;;;;;;13.80;11.27;;;;;;;;;;5013311;28;20496;-87
2022/11/06 12:41:05;;;;;;;17.10;13.70;;;;;;;;;;5013497;28;20462;-85
2022/11/06 12:50:18;;;;;;;15.88;12.27;;;;;;;;;;5019773;28;20076;-86
2022/11/06 12:56:07;;;;;;;12.48;11.15;;;;;;;;;;5067981;28;20048;-86
2022/11/06 13:04:46;;;;;;;13.43;9.63;;;;;;;;;;5101497;28;20027;-88
2022/11/06 13:07:41;;;;;;;13.35;10.13;;;;;;;;;;5076741;28;20403;-85
2022/11/06 13:10:41;;;;;;;15.07;11.82;;;;;;;;;;5076276;28;20487;-87
2022/11/06 13:13:22;;;;;;;12.85;10.23;;;;;;;;;;5092509;28;20111;-86
2022/11/06 13:15:48;;;;;;;13.90;11.00;;;;;;;;;;5094450;28;20028;-87
2022/11/06 13:18:28;;;;;;;11.98;10.48;;;;;;;;;;5094630;28;20047;-85
2022/11/06 13:21:17;;;;;;;15.70;12.98;;;;;;;;;;5094765;28;20025;-86
2022/11/06 13:23:47;;;;;;;13.95;12.50;;;;;;;;;;5093502;28;20031;-85
2022/11/06 13:26:13;;;;;;;26.95;23.98;;;;;;;;;;5094382;28;20095;-85
2022/11/06 13:28:48;;;;;;;24.85;21.10;;;;;;;;;;5094587;28;20024;-85
2022/11/06 13:31:48;;;;;;;;;;;;;;;;;;;;;
2022/11/06 13:34:04;;;;;;;13.40;12.00;;;;;;;;;;5090425;28;20025;-88
2022/11/06 13:40:03;;;;;;;13.95;12.48;;;;;;;;;;5093742;28;20027;-87
2022/11/06 13:42:31;;;;;;;13.05;11.05;;;;;;;;;;5075992;28;20513;-87
2022/11/06 13:44:57;;;;;;;13.45;10.30;;;;;;;;;;5075707;28;20032;-85
2022/11/06 13:47:38;;;;;;;11.70;9.38;;;;;;;;;;5075978;28;20039;-86
2022/11/06 13:50:07;;;;;;;13.27;11.23;;;;;;;;;;5094003;28;20032;-86
2022/11/06 13:52:52;;;;;;;14.77;12.77;;;;;;;;;;5092610;28;20031;-86
2022/11/06 13:55:35;;;;;;;21.50;18.38;;;;;;;;;;5093676;28;20475;-86
2022/11/06 13:58:32;;;;;;;23.48;20.83;;;;;;;;;;5092931;28;20429;-86
2022/11/06 14:01:08;;;;;;;21.80;17.88;;;;;;;;;;5092840;28;20055;-88
2022/11/06 14:06:52;;;;;;;22.25;18.13;;;;;;;;;;5031184;28;20417;-85
2022/11/06 14:09:29;;;;;;;25.35;21.92;;;;;;;;;;5030882;28;20500;-87
2022/11/06 14:11:56;;;;;;;22.83;19.17;;;;;;;;;;5031198;28;20159;-87
2022/11/06 14:14:22;;;;;;;20.98;18.52;;;;;;;;;;5031261;28;20029;-87
2022/11/06 14:17:12;;;;;;;20.80;16.50;;;;;;;;;;5047415;28;20036;-86
2022/11/06 14:19:39;;;;;;;20.25;18.08;;;;;;;;;;5091700;28;20132;-86
2022/11/06 14:22:08;;;;;;;20.92;18.70;;;;;;;;;;5092251;28;20444;-87
2022/11/06 14:24:35;;;;;;;22.80;18.70;;;;;;;;;;5092107;28;20093;-86
2022/11/06 14:27:03;;;;;;;21.00;18.58;;;;;;;;;;5091964;28;20070;-85
2022/11/06 14:29:29;;;;;;;22.08;19.52;;;;;;;;;;5091507;28;20060;-84
2022/11/06 14:31:59;;;;;;;23.25;19.98;;;;;;;;;;5093466;28;20091;-87
2022/11/06 14:34:26;;;;;;;28.42;25.33;;;;;;;;;;5093085;28;20108;-86
2022/11/06 14:36:53;;;;;;;24.25;21.35;;;;;;;;;;5107587;28;20023;-86
2022/11/06 14:39:40;;;;;;;19.05;15.48;;;;;;;;;;5113344;28;20032;-85
2022/11/06 14:42:39;;;;;;;18.40;15.68;;;;;;;;;;5111462;28;20493;-87
2022/11/06 14:45:10;;;;;;;21.52;18.08;;;;;;;;;;5027194;28;20045;-87
2022/11/06 14:48:11;;;;;;;20.88;18.27;;;;;;;;;;5030349;28;20034;-87
2022/11/06 14:50:39;;;;;;;24.33;20.65;;;;;;;;;;5032009;28;20087;-87
2022/11/06 14:53:07;;;;;;;30.42;23.73;;;;;;;;;;5032802;28;20040;-87
2022/11/06 14:55:51;;;;;;;23.42;18.70;;;;;;;;;;5027815;28;20111;-87
2022/11/06 14:58:31;;;;;;;26.40;21.38;;;;;;;;;;5030453;28;20030;-85
2022/11/06 15:01:11;;;;;;;26.40;22.85;;;;;;;;;;5030488;28;20079;-88
2022/11/06 15:04:04;;;;;;;27.40;22.50;;;;;;;;;;5030378;28;20497;-87
2022/11/06 15:06:31;;;;;;;26.15;22.00;;;;;;;;;;5029483;28;20493;-90
2022/11/06 15:08:59;;;;;;;26.90;21.60;;;;;;;;;;5030469;28;20034;-87
2022/11/06 15:11:51;;;;;;;23.90;20.35;;;;;;;;;;5030391;28;20026;-89
2022/11/06 15:14:17;;;;;;;22.92;18.40;;;;;;;;;;5059539;28;20028;-88
2022/11/06 15:16:43;;;;;;;24.10;20.27;;;;;;;;;;5092830;28;20024;-88
2022/11/06 15:19:14;;;;;;;25.33;20.08;;;;;;;;;;5092361;28;20034;-86
2022/11/06 15:21:59;;;;;;;23.55;21.05;;;;;;;;;;5091799;28;20027;-86
2022/11/06 15:24:25;;;;;;;22.50;19.85;;;;;;;;;;5092312;28;20032;-85
2022/11/06 15:26:54;;;;;;;26.50;22.67;;;;;;;;;;5074161;28;20360;-85
2022/11/06 15:29:28;;;;;;;27.60;22.50;;;;;;;;;;5074150;28;20024;-84
2022/11/06 15:32:05;;;;;;;26.27;21.38;;;;;;;;;;5092324;28;20031;-84
2022/11/06 15:34:42;;;;;;;27.33;22.67;;;;;;;;;;5074037;28;20043;-85
2022/11/06 15:37:08;;;;;;;25.55;21.90;;;;;;;;;;5092411;28;20224;-84
2022/11/06 15:39:53;;;;;;;25.30;21.45;;;;;;;;;;5092283;28;20023;-85
2022/11/06 15:42:19;;;;;;;;;;;;;;;;;;5092558;28;20028;-85
2022/11/06 15:44:46;;;;;;;31.45;24.80;;;;;;;;;;5074416;28;20332;-85
2022/11/06 15:47:25;;;;;;;29.70;25.17;;;;;;;;;;5092183;28;20051;-85
2022/11/06 15:50:09;;;;;;;25.23;22.40;;;;;;;;;;5092360;28;20050;-85
2022/11/06 15:52:36;;;;;;;30.73;23.75;;;;;;;;;;5092145;28;20103;-85
2022/11/06 15:55:02;;;;;;;33.08;28.60;;;;;;;;;;5091997;28;20032;-87
2022/11/06 15:57:28;;;;;;;30.52;24.67;;;;;;;;;;5070782;28;20116;-85
2022/11/06 16:00:16;;;;;;;25.98;21.75;;;;;;;;;;5072402;28;20457;-84
2022/11/06 16:02:47;;;;;;;30.20;26.02;;;;;;;;;;5073045;28;20021;-85
2022/11/06 16:05:14;;;;;;;24.02;21.42;;;;;;;;;;5091489;28;20089;-86
2022/11/06 16:07:40;;;;;;;25.27;21.75;;;;;;;;;;5091668;28;20032;-84
2022/11/06 16:10:07;;;;;;;26.92;21.80;;;;;;;;;;5091857;28;20028;-86
2022/11/06 16:12:33;;;;;;;37.85;30.65;;;;;;;;;;5091716;28;20024;-85
2022/11/06 16:14:59;;;;;;;25.10;21.92;;;;;;;;;;5074046;28;20025;-85
2022/11/06 16:17:26;;;;;;;28.90;21.25;;;;;;;;;;5092059;28;20027;-85
2022/11/06 16:19:56;;;;;;;26.50;22.08;;;;;;;;;;5091634;28;20107;-85
2022/11/06 16:22:33;;;;;;;27.48;22.33;;;;;;;;;;5091616;28;20020;-84
2022/11/06 16:25:04;;;;;;;29.67;24.38;;;;;;;;;;5092097;28;20052;-84
2022/11/06 16:27:48;;;;;;;28.45;23.50;;;;;;;;;;5091897;28;20051;-85
2022/11/06 16:30:23;;;;;;;31.25;25.60;;;;;;;;;;5073833;28;20036;-85
2022/11/06 16:33:09;;;;;;;32.50;24.00;;;;;;;;;;5074176;28;20028;-85
2022/11/06 16:35:50;;;;;;;28.77;24.55;;;;;;;;;;5095208;28;20039;-87
2022/11/06 16:38:22;;;;;;;32.53;25.70;;;;;;;;;;5095513;28;20020;-85
2022/11/06 16:43:46;;;;;;;34.72;27.27;;;;;;;;;;5095741;28;20085;-85
2022/11/06 16:52:44;;;;;;;32.50;26.35;;;;;;;;;;5095448;28;20099;-85
2022/11/06 16:58:32;;;;;;;36.03;28.52;;;;;;;;;;5066527;28;20028;-85
2022/11/06 17:04:25;;;;;;;33.65;28.83;;;;;;;;;;5084209;28;20095;-85
2022/11/06 17:06:52;;;;;;;31.30;26.77;;;;;;;;;;5076829;28;20016;-85
2022/11/06 17:09:36;;;;;;;29.10;24.55;;;;;;;;;;5076390;28;20463;-86
2022/11/06 17:12:11;;;;;;;26.52;22.35;;;;;;;;;;5076642;28;20047;-85
2022/11/06 17:14:42;;;;;;;46.67;33.83;;;;;;;;;;5076469;28;20028;-86
2022/11/06 17:17:40;;;;;;;28.48;23.35;;;;;;;;;;5094750;28;20073;-85
2022/11/06 17:20:31;;;;;;;;;;;;;;;;;;;;;
2022/11/06 17:22:58;;;;;;;24.52;19.65;;;;;;;;;;5094174;28;20020;-85
2022/11/06 17:25:24;;;;;;;23.42;20.63;;;;;;;;;;5094423;28;20118;-85
2022/11/06 17:27:50;;;;;;;24.40;21.08;;;;;;;;;;5076262;28;20031;-85
2022/11/06 17:30:35;;;;;;;24.65;21.75;;;;;;;;;;5076188;28;20028;-86
2022/11/06 17:33:01;;;;;;;25.50;22.75;;;;;;;;;;5076027;28;20024;-85
2022/11/06 17:38:34;;;;;;;24.23;20.70;;;;;;;;;;5086236;28;20016;-85
2022/11/06 17:41:00;;;;;;;24.98;21.08;;;;;;;;;;5076356;28;20031;-85
2022/11/06 17:43:26;;;;;;;31.23;26.08;;;;;;;;;;5093998;28;20055;-85
2022/11/06 17:45:52;;;;;;;35.15;30.05;;;;;;;;;;5093354;28;20042;-85
2022/11/06 17:48:18;;;;;;;39.28;31.83;;;;;;;;;;5076006;28;20059;-85
2022/11/06 17:53:29;;;;;;;29.08;24.83;;;;;;;;;;5093939;28;20031;-85
2022/11/06 17:55:55;;;;;;;27.55;24.30;;;;;;;;;;5101160;28;20065;-85
2022/11/06 17:58:21;;;;;;;32.80;28.23;;;;;;;;;;5114186;28;20019;-85
2022/11/06 18:00:47;;;;;;;41.38;33.03;;;;;;;;;;5114317;28;20070;-85
2022/11/06 18:03:18;;;;;;;26.00;22.33;;;;;;;;;;5095949;28;20019;-85
2022/11/06 18:05:44;;;;;;;23.92;19.65;;;;;;;;;;5114275;28;20470;-85
2022/11/06 18:08:11;;;;;;;24.10;19.30;;;;;;;;;;5095840;28;20023;-85
2022/11/06 18:10:38;;;;;;;25.38;20.67;;;;;;;;;;5095774;28;20035;-85
2022/11/06 18:13:04;;;;;;;64.63;52.22;;;;;;;;;;5114016;28;20020;-85
2022/11/06 18:15:34;;;;;;;56.88;50.10;;;;;;;;;;5113776;28;20098;-84